Jiulong, China
Current Conditions -  °F | °C
As of 8:00 PM on Sunday 25 Jan 2015 (Local Time) from ZUUU Reporting Station
Haze Haze  
Wind Chill: 55°   Ceiling: Unl
Heat Index: 55°   Visibility: 2.8mi
Dew Point: 45°   Wind: 11mph
Humidity: 67%   Direction: 30°NNE
Pressure: 30.09"   Gusts: NA
Location:  29°N, 101.5°E
Report Text: ZUUU 251200Z 03005MPS 4500 HZ SCT040 13/07 Q1019 NOSIG
Loading
Personal Weather Stations






























Interactive Weather Map New forecast layout! Learn more

10-Day Weather Forecast

Advertisements
Track Severe Weather on mobile